Skip Navigation LinksHome page > Weather > Current weather Skip Navigation Links

Current Weather

Chicago Midway, Chicago

For information only: do not use for flight planning or navigation.
Latest weather
Observation time Saturday, July 20, 2019 10:53 AM CDT
Local time Saturday, July 20, 2019 11:20 AM CDT
Flight conditions Visual Meteorological Conditions
Winds
Wind direction Southwest (230°)
Wind speed 15 mph
Wind gusting to 26 mph
Visibility 10 mi.
Sky condition
Ceiling 25,000 ft. broken clouds
Cloud layer scattered clouds 2,300 ft.
Cloud layer broken clouds 25,000 ft.
Temperature 88°F
Dewpoint 78°F
Altimeter 29.85 in.Hg
Derived measurements
Relative humidity 73%
Heat index 102°F
Density altitude 2979 ft.
Sea-level pressure 29.81 in.Hg
Remarks
Automated weather observing station with precipitation discriminator.
METAR KMDW 201553Z 23013G23KT 10SM SCT023 BKN250 31/26 A2985 RMK AO2 SLP094 T03110256

Settings

Location code

InnerDrive.Weather 4.0.6770.0 Release CLR 4.0.30319.42000
Copyright ©2018 Inner Drive Technology. All rights reserved. Portions Copyright ©1986-2018 David Braverman.

Find weather

Site navigation


Skip Navigation Links

Place info

Page info

PayPal - The safer, easier way to pay online!

Return home.

Copyright ©2019 Inner Drive Technology. Purveyors of fine, hand-crafted computer software. Page printed 2019-07-20T16:20:13 UTC.